Аэропорт: Якутск. Якутск

ICAO: UEEE

METAR:
2019/05/26 14:00
UEEE 261400Z 28003MPS CAVOK 10/01 Q1013 R23L/09//60 NOSIG RMK QFE751
METAR:
2019/05/26 12:21
TAF UEEE 261100Z 2612/2718 04003G09MPS 9999 BKN025CB OVC070 
      TEMPO 2612/2618 -TSRA 
      TEMPO 2618/2623 VRB01MPS 0500 FG VV003